Time;durP1;ratioP1;P1;durP2;ratioP2;P2;SDS_P1;SDS_P2;PMS_P1;PMS_P2;Temp;Humidity;BMP_temperature;BMP_pressure;BME280_temperature;BME280_humidity;BME280_pressure;Samples;Min_cycle;Max_cycle;Signal;HPM_P1;HPM_P2
2022/07/05 00:00:26;;;;;;;3.20;2.75;;;;;;;21.70;68.52;100658.59;10471657;28;20399;-75
2022/07/05 00:05:29;;;;;;;6.13;2.70;;;;;;;21.72;67.43;100661.84;10480318;28;20040;-76
2022/07/05 00:10:36;;;;;;;4.97;2.78;;;;;;;21.68;65.83;100650.56;10480825;28;20047;-78
2022/07/05 00:15:39;;;;;;;;;;;;;;;21.60;64.35;100651.53;10464626;28;20049;-78
2022/07/05 00:20:42;;;;;;;4.28;2.53;;;;;;;21.51;64.24;100652.84;10473553;28;20023;-78
2022/07/05 00:25:45;;;;;;;6.40;3.28;;;;;;;21.42;63.92;100653.00;10480845;28;20040;-78
2022/07/05 00:30:47;;;;;;;4.50;3.22;;;;;;;21.35;63.42;100642.44;10481458;28;20037;-78
2022/07/05 00:35:49;;;;;;;7.72;3.25;;;;;;;21.35;62.86;100642.44;10481779;28;20033;-78
2022/07/05 00:40:51;;;;;;;3.13;2.63;;;;;;;21.30;62.48;100637.09;10480758;28;20060;-79
2022/07/05 00:45:54;;;;;;;4.13;3.00;;;;;;;21.24;61.87;100630.13;10481826;28;20053;-78
2022/07/05 00:50:56;;;;;;;6.32;3.03;;;;;;;21.35;62.10;100636.88;10471551;28;21508;-78
2022/07/05 00:56:04;;;;;;;5.85;2.78;;;;;;;21.49;62.43;100635.63;10470682;28;20037;-80
2022/07/05 01:01:10;;;;;;;3.35;2.83;;;;;;;21.58;64.42;100636.31;10479873;28;20814;-77
2022/07/05 01:06:13;;;;;;;5.53;3.10;;;;;;;21.53;66.90;100636.56;10468758;28;20067;-78
2022/07/05 01:11:16;;;;;;;7.72;3.28;;;;;;;21.35;68.00;100642.44;10468479;28;20416;-77
2022/07/05 01:16:18;;;;;;;12.60;3.75;;;;;;;21.22;67.47;100629.66;10479970;28;20045;-77
2022/07/05 01:21:22;;;;;;;5.53;3.20;;;;;;;21.16;68.02;100622.66;10469410;28;20041;-77
2022/07/05 01:26:27;;;;;;;13.63;3.90;;;;;;;21.15;67.56;100631.41;10469532;28;20044;-78
2022/07/05 01:31:29;;;;;;;8.40;3.55;;;;;;;21.08;66.43;100632.00;10478099;28;20499;-78
2022/07/05 01:36:33;;;;;;;3.60;3.28;;;;;;;21.13;66.18;100633.72;10477874;28;20049;-78
2022/07/05 01:41:36;;;;;;;7.63;3.22;;;;;;;21.09;66.52;100650.38;10477477;28;20045;-77
2022/07/05 01:46:39;;;;;;;7.13;3.75;;;;;;;21.11;67.90;100689.09;10451340;28;20499;-78
2022/07/05 01:51:48;;;;;;;6.43;3.53;;;;;;;20.90;67.60;100704.00;10466203;28;20041;-77
2022/07/05 01:56:56;;;;;;;8.20;3.63;;;;;;;20.67;67.53;100706.44;10447523;28;20037;-78
2022/07/05 02:02:00;;;;;;;5.70;3.35;;;;;;;20.43;69.21;100723.09;10442178;28;20052;-78
2022/07/05 02:07:06;;;;;;;7.07;3.50;;;;;;;20.10;71.09;100720.31;10477278;28;20041;-78
2022/07/05 02:12:12;;;;;;;4.85;3.35;;;;;;;19.53;72.19;100724.56;10476747;28;20044;-78
2022/07/05 02:17:16;;;;;;;6.88;3.22;;;;;;;19.16;73.50;100720.75;10468041;28;20037;-78
2022/07/05 02:22:21;;;;;;;8.20;3.17;;;;;;;18.82;74.84;100699.50;10468788;28;20039;-79
2022/07/05 02:27:24;;;;;;;7.63;3.40;;;;;;;18.71;76.19;100709.38;10476973;28;20075;-78
2022/07/05 02:32:27;;;;;;;8.20;3.13;;;;;;;18.65;78.09;100716.28;10468897;28;20040;-78
2022/07/05 02:37:30;;;;;;;5.00;3.28;;;;;;;18.53;78.03;100697.47;10468036;28;20049;-78
2022/07/05 02:42:33;;;;;;;5.07;3.00;;;;;;;18.33;78.62;100678.75;10466990;28;20049;-79
2022/07/05 02:47:36;;;;;;;6.82;2.80;;;;;;;18.17;78.91;100672.13;10466905;28;20040;-78
2022/07/05 02:52:38;;;;;;;5.53;3.13;;;;;;;18.15;80.68;100661.34;10476220;28;20037;-78
2022/07/05 02:57:42;;;;;;;3.72;2.40;;;;;;;17.94;79.67;100654.88;10466255;28;20052;-78
2022/07/05 03:02:47;;;;;;;3.00;2.67;;;;;;;17.73;78.67;100668.63;10449998;28;20057;-78
2022/07/05 03:07:50;;;;;;;3.53;2.30;;;;;;;17.68;79.00;100660.44;10468082;28;20081;-78
2022/07/05 03:12:53;;;;;;;3.38;2.30;;;;;;;17.59;79.33;100670.72;10472699;28;20439;-78
2022/07/05 03:17:56;;;;;;;3.40;3.08;;;;;;;17.49;82.36;100655.22;10466334;28;20037;-78
2022/07/05 03:23:00;;;;;;;10.15;3.60;;;;;;;17.42;84.58;100641.03;10465682;28;20044;-78
2022/07/05 03:28:11;;;;;;;6.35;3.03;;;;;;;17.18;84.91;100636.81;10467361;28;20645;-78
2022/07/05 03:33:16;;;;;;;4.55;2.67;;;;;;;16.95;84.89;100638.06;10463956;28;20080;-78
2022/07/05 03:38:21;;;;;;;3.92;2.97;;;;;;;16.79;86.04;100645.19;10464273;28;20041;-78
2022/07/05 03:43:23;;;;;;;5.43;3.20;;;;;;;16.69;86.32;100657.41;10464592;28;20061;-78
2022/07/05 03:48:26;;;;;;;7.03;3.13;;;;;;;16.55;86.30;100654.72;10482407;28;20530;-78
2022/07/05 03:53:29;;;;;;;4.80;2.95;;;;;;;16.48;86.57;100651.59;10484634;28;20040;-78
2022/07/05 03:58:32;;;;;;;4.32;2.65;;;;;;;16.47;87.16;100663.00;10475174;28;20079;-78
2022/07/05 04:03:35;;;;;;;3.22;2.47;;;;;;;16.41;87.30;100658.75;10473841;28;20048;-78
2022/07/05 04:08:38;;;;;;;5.57;2.45;;;;;;;16.44;86.85;100656.16;10474039;28;20048;-78
2022/07/05 04:13:41;;;;;;;2.47;2.22;;;;;;;16.44;86.04;100653.38;10449173;28;20045;-77
2022/07/05 04:18:44;;;;;;;3.03;2.47;;;;;;;16.46;85.94;100658.59;10438331;28;20060;-78
2022/07/05 04:23:46;;;;;;;4.07;2.72;;;;;;;16.55;85.96;100665.81;10453066;28;20041;-78
2022/07/05 04:28:49;;;;;;;3.40;2.90;;;;;;;16.58;86.33;100643.00;10451663;28;20064;-79
2022/07/05 04:33:57;;;;;;;4.65;2.85;;;;;;;16.60;85.98;100653.75;10470018;28;20061;-76
2022/07/05 04:39:04;;;;;;;4.15;3.20;;;;;;;16.67;86.09;100636.72;10474141;28;20423;-76
2022/07/05 04:44:08;;;;;;;4.15;3.05;;;;;;;16.76;86.46;100632.81;10489096;28;20078;-77
2022/07/05 04:49:12;;;;;;;3.78;2.72;;;;;;;16.86;86.50;100643.59;10472887;28;20048;-78
2022/07/05 04:54:14;;;;;;;6.70;3.17;;;;;;;17.04;86.94;100652.75;10472640;28;20037;-77
2022/07/05 04:59:16;;;;;;;6.30;3.20;;;;;;;17.36;87.10;100665.34;10489773;28;20422;-77
2022/07/05 05:04:18;;;;;;;12.27;3.80;;;;;;;17.55;86.34;100694.72;10489923;28;20522;-77
2022/07/05 05:09:21;;;;;;;6.20;3.33;;;;;;;17.69;86.79;100687.06;10489845;28;20045;-77
2022/07/05 05:14:23;;;;;;;4.47;3.15;;;;;;;17.83;86.90;100687.69;10489247;28;20045;-77
2022/07/05 05:19:25;;;;;;;3.45;3.15;;;;;;;17.89;87.07;100682.81;10489829;28;20045;-77
2022/07/05 05:24:28;;;;;;;5.10;3.65;;;;;;;17.89;87.32;100697.50;10458179;28;20053;-77
2022/07/05 05:29:30;;;;;;;5.05;3.20;;;;;;;17.92;88.31;100679.38;10487323;28;20055;-78
2022/07/05 05:34:32;;;;;;;5.68;3.65;;;;;;;17.88;88.34;100689.50;10488898;28;20051;-78
2022/07/05 05:39:35;;;;;;;7.82;4.10;;;;;;;17.89;88.94;100678.06;10488688;28;20040;-78
2022/07/05 05:44:37;;;;;;;5.55;4.28;;;;;;;17.84;89.26;100663.53;10479972;28;20053;-78
2022/07/05 05:49:39;;;;;;;4.85;3.90;;;;;;;17.77;89.56;100672.38;10488288;28;20041;-78
2022/07/05 05:54:41;;;;;;;7.03;4.13;;;;;;;17.78;89.51;100676.78;10488025;28;20045;-78
2022/07/05 05:59:44;;;;;;;5.88;3.90;;;;;;;17.84;89.98;100683.78;10488236;28;20491;-78
2022/07/05 06:04:46;;;;;;;5.75;3.35;;;;;;;18.08;90.37;100674.94;10487431;28;20055;-78
2022/07/05 06:09:48;;;;;;;9.10;3.90;;;;;;;18.36;90.15;100681.69;10487473;28;20048;-78
2022/07/05 06:14:51;;;;;;;6.50;4.60;;;;;;;18.70;90.06;100668.00;10486296;28;20041;-77
2022/07/05 06:19:53;;;;;;;5.80;3.65;;;;;;;19.32;89.20;100670.88;10487195;28;20124;-78
2022/07/05 06:24:55;;;;;;;5.05;3.88;;;;;;;19.87;87.24;100672.56;10468099;28;20045;-76
2022/07/05 06:29:57;;;;;;;5.22;3.50;;;;;;;20.49;81.48;100666.00;10486699;28;20036;-78
2022/07/05 06:35:00;;;;;;;5.50;4.22;;;;;;;21.04;78.17;100661.78;10468834;28;20041;-78
2022/07/05 06:40:02;;;;;;;4.80;3.33;;;;;;;21.57;76.02;100659.81;10486939;28;20053;-77
2022/07/05 06:45:08;;;;;;;5.13;3.92;;;;;;;21.57;74.80;100673.78;10486337;28;20048;-77
2022/07/05 06:50:10;;;;;;;5.22;3.60;;;;;;;21.66;74.53;100663.25;10468173;28;20420;-77
2022/07/05 06:55:12;;;;;;;4.28;3.17;;;;;;;21.77;73.30;100666.34;10486040;28;20419;-77
2022/07/05 07:00:15;;;;;;;6.13;3.92;;;;;;;22.04;74.04;100667.47;10485803;28;20049;-77
2022/07/05 07:05:17;;;;;;;3.50;3.17;;;;;;;22.16;74.47;100670.25;10485101;28;20083;-78
2022/07/05 07:10:20;;;;;;;4.45;3.60;;;;;;;22.42;73.85;100672.53;10467550;28;20071;-77
2022/07/05 07:15:22;;;;;;;6.07;4.43;;;;;;;22.94;70.24;100665.84;10485991;28;20056;-77
2022/07/05 07:20:25;;;;;;;8.20;5.00;;;;;;;22.63;70.08;100655.47;10485498;28;20041;-76
2022/07/05 07:25:27;;;;;;;5.05;4.32;;;;;;;22.47;71.03;100661.06;10430676;28;20050;-77
2022/07/05 07:30:29;;;;;;;6.53;4.20;;;;;;;22.69;71.02;100659.63;10456829;28;20420;-77
2022/07/05 07:35:32;;;;;;;5.75;4.35;;;;;;;22.58;71.18;100655.75;10475417;28;20059;-78
2022/07/05 07:40:34;;;;;;;6.30;4.63;;;;;;;22.97;69.63;100651.94;10472921;28;20396;-78
2022/07/05 07:45:36;;;;;;;7.15;4.38;;;;;;;23.59;68.56;100652.09;10492596;28;20080;-78
2022/07/05 07:50:38;;;;;;;8.77;4.57;;;;;;;23.43;67.03;100660.56;10446430;28;20045;-78
2022/07/05 07:55:41;;;;;;;8.45;4.90;;;;;;;22.91;69.19;100663.75;10482680;28;20037;-78
2022/07/05 08:00:43;;;;;;;6.53;4.82;;;;;;;22.70;69.54;100664.03;10487114;28;20049;-78
2022/07/05 08:05:46;;;;;;;7.65;4.80;;;;;;;22.65;71.07;100664.31;10443722;28;20065;-78
2022/07/05 08:10:48;;;;;;;8.43;4.88;;;;;;;22.69;69.95;100666.03;10458776;28;20041;-78
2022/07/05 08:15:51;;;;;;;5.22;4.38;;;;;;;22.70;70.28;100659.25;10467810;28;20064;-77
2022/07/05 08:26:14;;;;;;;4.07;3.53;;;;;;;22.86;68.79;100659.25;10477709;28;20164;-77
2022/07/05 08:31:17;;;;;;;6.47;4.03;;;;;;;23.06;68.15;100655.31;10479867;28;20057;-76
2022/07/05 08:36:20;;;;;;;3.63;3.33;;;;;;;23.58;66.61;100650.47;10473312;28;20041;-76
2022/07/05 08:41:23;;;;;;;7.03;3.67;;;;;;;24.30;63.12;100657.13;10436659;28;20056;-76
2022/07/05 08:46:25;;;;;;;4.20;3.60;;;;;;;24.76;60.78;100648.63;10488321;28;20135;-76
2022/07/05 08:51:32;;;;;;;6.68;3.55;;;;;;;24.84;60.77;100644.78;10464441;28;20053;-75
2022/07/05 08:56:36;;;;;;;4.23;3.50;;;;;;;25.59;58.21;100648.63;10480829;28;20496;-75
2022/07/05 09:01:39;;;;;;;5.35;3.83;;;;;;;26.01;56.73;100641.88;10471798;28;20522;-76
2022/07/05 09:06:41;;;;;;;5.00;3.20;;;;;;;26.42;56.06;100640.72;10478546;28;20523;-75
2022/07/05 09:11:46;;;;;;;3.63;3.28;;;;;;;26.88;54.69;100645.06;10466515;28;20048;-75
2022/07/05 09:16:49;;;;;;;4.72;3.13;;;;;;;26.88;52.95;100637.44;10487472;28;20038;-78
2022/07/05 09:22:05;;;;;;;3.53;3.03;;;;;;;26.96;53.78;100643.94;10450611;28;20335;-76
2022/07/05 09:27:07;;;;;;;3.22;3.00;;;;;;;27.05;52.06;100641.59;10469789;28;20443;-76
2022/07/05 09:32:23;;;;;;;4.22;2.50;;;;;;;27.01;50.94;100644.41;10485336;28;20048;-79
2022/07/05 09:37:44;;;;;;;5.43;2.30;;;;;;;26.66;51.24;100639.28;10465006;28;20060;-78
2022/07/05 09:42:46;;;;;;;5.32;2.75;;;;;;;26.25;51.40;100646.97;10464091;28;20041;-78
2022/07/05 09:47:48;;;;;;;2.83;2.63;;;;;;;25.83;52.14;100658.56;10455429;28;20407;-78
2022/07/05 09:52:55;;;;;;;3.28;2.60;;;;;;;25.63;52.68;100657.09;10471107;28;20032;-76
2022/07/05 09:57:58;;;;;;;4.95;3.30;;;;;;;25.32;53.58;100656.28;10470727;28;20048;-77
2022/07/05 10:03:03;;;;;;;4.07;2.75;;;;;;;25.19;54.03;100663.34;10486536;28;20060;-81
2022/07/05 10:08:05;;;;;;;5.40;3.15;;;;;;;25.00;54.64;100644.63;10482685;28;20033;-78
2022/07/05 10:13:09;;;;;;;9.40;3.58;;;;;;;25.10;53.04;100654.38;10487893;28;20045;-80
2022/07/05 10:18:12;;;;;;;3.45;2.78;;;;;;;25.13;52.71;100651.63;10486143;28;20043;-80
2022/07/05 10:23:16;;;;;;;6.78;3.00;;;;;;;25.12;52.36;100637.97;10470375;28;20108;-77
2022/07/05 10:28:19;;;;;;;3.10;2.75;;;;;;;24.99;50.88;100642.16;10445956;28;20045;-77
2022/07/05 10:33:26;;;;;;;2.65;2.45;;;;;;;24.93;50.48;100634.06;10448928;28;20432;-76
2022/07/05 10:38:29;;;;;;;3.55;2.80;;;;;;;24.92;50.77;100618.41;10443921;28;20037;-78
2022/07/05 10:43:31;;;;;;;3.42;2.60;;;;;;;25.02;51.59;100614.19;10449060;28;20056;-77
2022/07/05 10:48:34;;;;;;;2.90;2.55;;;;;;;25.05;50.67;100602.19;10461848;28;20056;-77
2022/07/05 10:53:36;;;;;;;4.43;2.40;;;;;;;25.07;50.63;100605.41;10439605;28;20034;-76
2022/07/05 10:58:41;;;;;;;3.10;2.72;;;;;;;25.14;50.54;100615.94;10453699;28;20507;-78
2022/07/05 11:03:55;;;;;;;5.85;3.15;;;;;;;25.27;50.99;100606.06;10437611;28;20068;-78
2022/07/05 11:08:58;;;;;;;4.43;3.40;;;;;;;25.20;51.06;100594.75;10457058;28;20037;-78
2022/07/05 11:14:02;;;;;;;4.63;3.10;;;;;;;25.16;51.96;100599.50;10479948;28;20033;-78
2022/07/05 11:19:06;;;;;;;3.53;3.22;;;;;;;25.20;51.83;100589.97;10463351;28;20047;-77
2022/07/05 11:24:25;;;;;;;4.15;3.25;;;;;;;25.24;51.49;100593.63;10470081;28;20114;-77
2022/07/05 11:29:54;;;;;;;4.95;3.35;;;;;;;25.28;52.68;100590.03;10460373;28;20173;-77
2022/07/05 11:35:17;;;;;;;3.75;3.17;;;;;;;25.35;52.63;100592.94;10458085;28;20045;-77
2022/07/05 11:40:19;;;;;;;4.40;3.67;;;;;;;25.38;51.85;100601.41;10442675;28;20562;-77
2022/07/05 11:45:21;;;;;;;3.67;3.38;;;;;;;25.28;52.76;100585.22;10425714;28;20060;-77
2022/07/05 11:50:31;;;;;;;5.78;3.42;;;;;;;25.40;52.52;100590.59;10426237;28;20046;-77
2022/07/05 11:55:33;;;;;;;6.53;3.83;;;;;;;25.48;52.13;100585.84;10425926;28;20556;-77
2022/07/05 12:00:36;;;;;;;4.00;3.55;;;;;;;25.57;52.70;100586.38;10443820;28;20044;-77
2022/07/05 12:05:40;;;;;;;6.80;3.53;;;;;;;25.73;51.44;100583.38;10426100;28;20050;-77
2022/07/05 12:16:07;;;;;;;3.88;3.53;;;;;;;25.73;51.28;100578.56;10442787;28;20049;-77
2022/07/05 12:21:13;;;;;;;3.95;3.50;;;;;;;25.75;50.31;100566.94;10428086;28;20037;-77
2022/07/05 12:26:16;;;;;;;;;;;;;;;25.78;50.89;100566.16;10454391;28;20053;-78
2022/07/05 12:31:23;;;;;;;4.03;3.63;;;;;;;25.71;51.15;100563.28;10435014;28;20425;-78
2022/07/05 12:36:27;;;;;;;4.18;3.78;;;;;;;25.68;50.37;100561.22;10432246;28;20045;-78
2022/07/05 12:41:29;;;;;;;7.10;4.00;;;;;;;25.66;50.96;100555.94;10415643;28;20046;-78
2022/07/05 12:46:39;;;;;;;5.45;3.75;;;;;;;25.69;50.61;100563.66;10424297;28;20041;-76
2022/07/05 12:51:43;;;;;;;4.63;3.60;;;;;;;25.68;50.24;100564.03;10481262;28;20049;-76
2022/07/05 13:02:13;;;;;;;5.43;3.67;;;;;;;25.63;49.78;100558.72;10449274;28;20061;-77
2022/07/05 13:07:25;;;;;;;4.78;3.20;;;;;;;25.66;49.37;100555.94;10459955;28;20063;-77
2022/07/05 13:12:29;;;;;;;4.13;3.17;;;;;;;25.68;49.98;100564.03;10438865;28;20080;-79
2022/07/05 13:17:31;;;;;;;20.27;6.07;;;;;;;25.67;50.86;100554.75;10431042;28;20048;-81
2022/07/05 13:22:33;;;;;;;5.15;3.63;;;;;;;25.63;50.83;100558.72;10470748;28;20041;-78
2022/07/05 13:27:36;;;;;;;4.55;4.15;;;;;;;25.50;50.74;100552.56;10489132;28;20051;-78
2022/07/05 13:32:38;;;;;;;4.60;3.60;;;;;;;25.42;50.44;100550.88;10484174;28;20412;-78
2022/07/05 13:37:40;;;;;;;3.83;3.40;;;;;;;25.37;50.67;100552.03;10470486;28;20052;-79
2022/07/05 13:42:42;;;;;;;5.20;3.35;;;;;;;25.38;50.36;100561.28;10487555;28;20048;-78
2022/07/05 13:47:45;;;;;;;3.13;2.78;;;;;;;25.38;50.33;100562.09;10483588;28;20427;-86
2022/07/05 13:52:47;;;;;;;3.80;2.85;;;;;;;25.16;49.10;100582.66;10487099;28;20037;-80
2022/07/05 13:57:50;;;;;;;2.63;2.40;;;;;;;25.08;47.63;100566.91;10447979;28;20409;-82
2022/07/05 14:02:52;;;;;;;2.83;2.10;;;;;;;24.88;46.80;100585.88;10472218;28;20037;-77
2022/07/05 14:07:54;;;;;;;4.07;2.22;;;;;;;24.69;47.82;100591.59;10472560;28;20053;-75
2022/07/05 14:12:57;;;;;;;4.93;2.63;;;;;;;24.46;48.92;100628.09;10474970;28;20044;-77
2022/07/05 14:18:00;;;;;;;5.80;2.60;;;;;;;23.89;55.63;100618.66;10467744;28;20044;-76
2022/07/05 14:23:02;;;;;;;2.97;2.60;;;;;;;22.88;58.48;100597.34;10464112;28;20045;-77
2022/07/05 14:28:07;;;;;;;2.80;2.53;;;;;;;22.34;61.86;100596.03;10477762;28;20128;-78
2022/07/05 14:33:11;;;;;;;3.20;2.50;;;;;;;22.24;63.39;100600.22;10469507;28;20120;-79
2022/07/05 14:38:14;;;;;;;5.65;2.63;;;;;;;22.35;64.67;100594.88;10466760;28;20500;-85
2022/07/05 14:43:17;;;;;;;4.15;3.15;;;;;;;22.39;64.39;100597.75;10458247;28;20068;-81
2022/07/05 14:48:20;;;;;;;3.72;3.00;;;;;;;22.38;64.94;100602.53;10456909;28;20052;-85
2022/07/05 14:53:23;;;;;;;2.97;2.75;;;;;;;22.44;64.96;100598.31;10464778;28;20109;-83
2022/07/05 14:58:30;;;;;;;4.07;2.83;;;;;;;22.54;65.89;100580.94;10473756;28;20422;-95
2022/07/05 15:03:36;;;;;;;4.68;3.38;;;;;;;22.66;65.25;100588.44;10402776;28;20052;-92
2022/07/05 15:08:38;;;;;;;4.55;2.80;;;;;;;22.70;63.72;100588.50;10483518;28;20045;-86
2022/07/05 15:13:41;;;;;;;7.40;2.95;;;;;;;22.78;63.68;100585.53;10475475;28;20045;-82
2022/07/05 15:18:43;;;;;;;3.15;2.70;;;;;;;22.83;62.04;100587.25;10457222;28;20037;-79
2022/07/05 15:23:45;;;;;;;3.25;2.95;;;;;;;22.79;60.61;100591.94;10448865;28;20065;-78
2022/07/05 15:28:47;;;;;;;6.63;3.00;;;;;;;22.81;60.52;100595.97;10454617;28;20033;-81
2022/07/05 15:33:50;;;;;;;2.90;2.70;;;;;;;22.73;61.69;100608.16;10473873;28;20064;-82
2022/07/05 15:38:53;;;;;;;3.00;2.70;;;;;;;22.63;61.50;100614.34;10448506;28;20037;-83
2022/07/05 15:43:56;;;;;;;4.53;2.63;;;;;;;22.50;61.92;100610.81;10447763;28;20052;-88
2022/07/05 15:48:59;;;;;;;2.67;2.45;;;;;;;22.50;62.48;100616.41;10472390;28;20040;-84
2022/07/05 15:54:02;;;;;;;3.40;3.10;;;;;;;22.42;62.87;100611.84;10482449;28;20503;-83
2022/07/05 15:59:05;;;;;;;2.60;2.40;;;;;;;22.25;62.64;100615.00;10494142;28;20424;-81
2022/07/05 16:04:07;;;;;;;5.38;2.17;;;;;;;22.12;61.59;100619.84;10481130;28;20056;-83
2022/07/05 16:09:09;;;;;;;3.45;1.67;;;;;;;22.08;60.98;100610.56;10493497;28;20048;-83
2022/07/05 16:14:12;;;;;;;1.73;1.63;;;;;;;22.08;61.04;100618.16;10437843;28;20041;-83
2022/07/05 16:19:15;;;;;;;1.85;1.70;;;;;;;22.18;60.25;100618.41;10492531;28;20081;-84
2022/07/05 16:24:18;;;;;;;1.50;1.40;;;;;;;22.18;58.55;100637.97;10446680;28;20041;-82
2022/07/05 16:29:21;;;;;;;1.80;1.70;;;;;;;22.05;59.15;100641.22;10454869;28;20056;-84
2022/07/05 16:34:23;;;;;;;2.25;1.30;;;;;;;21.87;59.48;100635.13;10473717;28;20408;-77
2022/07/05 16:39:25;;;;;;;1.10;1.10;;;;;;;21.68;59.15;100644.97;10469658;28;20060;-77
2022/07/05 16:44:28;;;;;;;1.67;1.13;;;;;;;21.51;59.70;100648.06;10457862;28;20051;-77
2022/07/05 16:49:30;;;;;;;1.58;0.82;;;;;;;21.46;61.04;100645.53;10473392;28;20053;-79
2022/07/05 16:54:32;;;;;;;1.45;0.93;;;;;;;21.40;61.70;100662.91;10484511;28;20049;-80
2022/07/05 16:59:38;;;;;;;1.73;1.15;;;;;;;21.27;62.26;100668.50;10472435;28;20029;-90
2022/07/05 17:04:42;;;;;;;1.30;1.20;;;;;;;21.32;62.83;100687.78;10467413;28;20063;-86
2022/07/05 17:09:44;;;;;;;3.88;1.23;;;;;;;21.30;63.57;100687.31;10485168;28;20037;-85
2022/07/05 17:14:46;;;;;;;1.08;0.98;;;;;;;21.20;62.04;100685.00;10487020;28;20044;-87
2022/07/05 17:19:50;;;;;;;1.10;1.00;;;;;;;21.05;61.46;100689.34;10453329;28;20041;-83
2022/07/05 17:24:52;;;;;;;1.90;1.15;;;;;;;21.04;62.19;100687.72;10490056;28;20419;-83
2022/07/05 17:29:54;;;;;;;1.45;1.00;;;;;;;20.92;61.03;100700.84;10487972;28;20037;-80
2022/07/05 17:34:57;;;;;;;3.78;2.67;;;;;;;20.85;62.02;100695.06;10468948;28;20044;-81
2022/07/05 17:40:00;;;;;;;3.00;1.05;;;;;;;20.74;62.08;100689.09;10475471;28;20037;-80
2022/07/05 17:45:04;;;;;;;4.68;1.50;;;;;;;20.65;62.27;100694.81;10477044;28;20060;-83
2022/07/05 17:50:07;;;;;;;1.30;1.00;;;;;;;20.56;62.30;100682.13;10478467;28;20038;-84
2022/07/05 17:55:09;;;;;;;4.53;1.10;;;;;;;20.52;61.49;100686.78;10488656;28;20123;-79
2022/07/05 18:00:13;;;;;;;1.02;0.90;;;;;;;20.47;62.44;100683.03;10487243;28;20053;-79
2022/07/05 18:05:15;;;;;;;1.60;0.90;;;;;;;20.45;61.95;100681.75;10485675;28;20061;-83
2022/07/05 18:10:18;;;;;;;0.93;0.93;;;;;;;20.41;62.06;100681.66;10461129;28;20041;-80
2022/07/05 18:15:21;;;;;;;2.13;1.23;;;;;;;20.51;62.46;100685.97;10470525;28;20044;-84
2022/07/05 18:20:25;;;;;;;6.20;1.88;;;;;;;20.56;62.29;100690.50;10474606;28;20049;-91
2022/07/05 18:25:27;;;;;;;2.05;1.73;;;;;;;20.58;62.11;100694.56;10474037;28;20052;-77
2022/07/05 18:30:29;;;;;;;1.30;1.20;;;;;;;20.54;61.84;100688.06;10487433;28;20638;-81
2022/07/05 18:35:32;;;;;;;3.45;1.17;;;;;;;20.48;62.46;100689.47;10487137;28;20040;-79
2022/07/05 18:40:34;;;;;;;2.80;1.20;;;;;;;20.42;62.79;100693.59;10487193;28;20045;-77
2022/07/05 18:45:37;;;;;;;3.05;1.15;;;;;;;20.29;62.89;100698.31;10476014;28;20061;-85
2022/07/05 18:50:40;;;;;;;0.80;0.80;;;;;;;20.21;62.48;100710.38;10455679;28;20040;-84
2022/07/05 18:55:43;;;;;;;0.70;0.70;;;;;;;20.20;62.12;100719.09;10447885;28;20041;-84
2022/07/05 19:00:46;;;;;;;0.80;0.73;;;;;;;20.16;61.93;100722.56;10488533;28;20234;-96
2022/07/05 19:16:31;;;;;;;0.90;0.80;;;;;;;20.12;63.09;100746.69;10444667;28;20040;-81
2022/07/05 19:21:33;;;;;;;1.27;0.90;;;;;;;19.91;63.48;100740.34;10444727;28;20045;-82
2022/07/05 19:26:36;;;;;;;1.95;1.00;;;;;;;19.87;63.92;100747.75;10461872;28;20045;-88
2022/07/05 19:31:38;;;;;;;1.88;0.93;;;;;;;19.70;64.82;100751.50;10447529;28;20059;-86
2022/07/05 19:36:42;;;;;;;1.92;0.98;;;;;;;19.66;65.56;100755.31;10448960;28;20511;-89
2022/07/05 19:41:45;;;;;;;2.47;0.77;;;;;;;19.55;65.98;100755.69;10466622;28;20052;-82
2022/07/05 19:46:48;;;;;;;2.13;0.90;;;;;;;19.47;66.47;100755.75;10478803;28;20064;-80
2022/07/05 19:51:51;;;;;;;1.60;1.00;;;;;;;19.34;66.53;100762.38;10493346;28;20037;-73
2022/07/05 19:56:53;;;;;;;2.97;1.00;;;;;;;19.24;67.41;100761.59;10493193;28;20059;-79
2022/07/05 20:01:56;;;;;;;1.02;0.93;;;;;;;19.25;67.25;100757.66;10472947;28;20041;-82
2022/07/05 20:06:58;;;;;;;0.85;0.85;;;;;;;19.31;67.32;100763.88;10492371;28;20053;-75
2022/07/05 20:12:01;;;;;;;3.00;1.30;;;;;;;19.26;67.42;100764.03;10451555;28;20381;-78
2022/07/05 20:17:04;;;;;;;2.08;1.27;;;;;;;19.16;67.93;100770.00;10483970;28;20393;-79
2022/07/05 20:22:07;;;;;;;3.47;1.40;;;;;;;19.15;67.61;100774.75;10469195;28;20052;-87
2022/07/05 20:27:09;;;;;;;2.88;1.30;;;;;;;19.06;67.59;100771.19;10463318;28;20036;-80
2022/07/05 20:32:13;;;;;;;1.10;1.00;;;;;;;19.04;67.69;100770.72;10489798;28;20049;-79
2022/07/05 20:37:16;;;;;;;1.23;1.15;;;;;;;19.06;67.73;100770.38;10470792;28;20135;-81
2022/07/05 20:42:19;;;;;;;2.45;1.00;;;;;;;18.96;67.56;100771.56;10446873;28;20056;-82
2022/07/05 20:47:22;;;;;;;2.03;1.10;;;;;;;18.90;67.77;100773.72;10462576;28;20436;-83
2022/07/05 20:52:24;;;;;;;2.45;1.00;;;;;;;18.90;67.38;100761.78;10462343;28;20045;-79
2022/07/05 20:57:26;;;;;;;2.42;0.98;;;;;;;18.87;66.45;100766.03;10490052;28;20049;-81
2022/07/05 21:02:29;;;;;;;1.75;1.30;;;;;;;18.82;66.60;100774.56;10472367;28;20041;-79
2022/07/05 21:07:31;;;;;;;2.45;0.90;;;;;;;18.77;66.66;100772.00;10491033;28;20053;-80
2022/07/05 21:12:33;;;;;;;2.45;0.85;;;;;;;18.77;66.34;100768.41;10490031;28;20371;-84
2022/07/05 21:17:39;;;;;;;2.10;0.90;;;;;;;18.79;66.21;100761.34;10489319;28;20037;-80
2022/07/05 21:22:42;;;;;;;2.85;1.42;;;;;;;18.75;66.03;100770.69;10490151;28;20053;-83
2022/07/05 21:27:44;;;;;;;2.22;1.30;;;;;;;18.68;66.20;100757.28;10474079;28;20053;-83
2022/07/05 21:32:47;;;;;;;2.28;1.45;;;;;;;18.72;66.34;100769.38;10482396;28;20051;-80
2022/07/05 21:37:49;;;;;;;2.95;1.17;;;;;;;18.72;66.15;100763.81;10488905;28;20055;-80
2022/07/05 21:42:51;;;;;;;3.78;1.92;;;;;;;18.75;66.88;100757.59;10466217;28;20053;-81
2022/07/05 21:47:54;;;;;;;2.15;1.15;;;;;;;18.72;66.42;100758.25;10489126;28;20049;-79
2022/07/05 21:52:56;;;;;;;1.65;1.20;;;;;;;18.65;66.73;100761.56;10488312;28;20538;-76
2022/07/05 21:57:58;;;;;;;2.08;1.10;;;;;;;18.63;66.86;100774.16;10489110;28;20052;-79
2022/07/05 22:08:22;;;;;;;1.45;1.20;;;;;;;18.62;68.04;100773.31;10447081;28;20049;-81
2022/07/05 22:13:24;;;;;;;4.15;1.63;;;;;;;18.53;68.13;100780.03;10467735;28;20053;-83
2022/07/05 22:18:27;;;;;;;2.67;1.42;;;;;;;18.53;68.95;100782.81;10474002;28;20037;-82
2022/07/05 22:23:29;;;;;;;5.22;1.30;;;;;;;18.51;69.49;100791.47;10467818;28;20037;-79
2022/07/05 22:28:31;;;;;;;1.15;0.95;;;;;;;18.50;70.16;100792.63;10487710;28;20498;-82
2022/07/05 22:33:34;;;;;;;1.10;0.77;;;;;;;18.46;69.74;100790.84;10450579;28;20050;-84
2022/07/05 22:38:38;;;;;;;1.08;0.95;;;;;;;18.39;69.40;100789.38;10453399;28;20048;-84
2022/07/05 22:43:40;;;;;;;1.48;0.80;;;;;;;18.32;69.68;100782.69;10486553;28;20055;-84
2022/07/05 22:48:43;;;;;;;1.80;0.80;;;;;;;18.33;69.32;100784.34;10460102;28;20411;-82
2022/07/05 22:53:45;;;;;;;1.45;0.70;;;;;;;18.22;68.92;100785.81;10468944;28;20523;-84
2022/07/05 22:58:47;;;;;;;3.40;0.82;;;;;;;18.13;69.86;100783.06;10485724;28;20497;-85
2022/07/05 23:03:50;;;;;;;0.88;0.80;;;;;;;18.15;69.15;100791.88;10453112;28;20048;-84
2022/07/05 23:08:52;;;;;;;2.08;0.88;;;;;;;18.21;69.18;100786.97;10445400;28;20037;-81
2022/07/05 23:13:54;;;;;;;1.02;0.50;;;;;;;18.17;68.40;100784.03;10447162;28;20038;-83
2022/07/05 23:18:57;;;;;;;3.33;0.88;;;;;;;18.14;68.74;100781.91;10496576;28;20041;-82
2022/07/05 23:29:20;;;;;;;1.40;0.60;;;;;;;18.03;69.38;100763.94;10485783;28;20056;-81
2022/07/05 23:34:22;;;;;;;1.15;0.77;;;;;;;18.05;69.59;100764.47;10477129;28;20511;-81
2022/07/05 23:39:24;;;;;;;3.08;1.00;;;;;;;18.09;69.86;100773.75;10484345;28;20063;-83
2022/07/05 23:44:28;;;;;;;3.20;1.27;;;;;;;18.08;70.00;100774.91;10484914;28;20546;-83
2022/07/05 23:49:30;;;;;;;2.20;0.80;;;;;;;17.99;70.45;100787.97;10484404;28;20041;-83